sensor_id;sensor_type;location;lat;lon;timestamp;temperature;humidity
19654;DHT22;9975;48.046;7.804;2024-01-15T01:56:06;-3.50;99.90
19654;DHT22;9975;48.046;7.804;2024-01-15T01:58:33;-3.30;99.90
19654;DHT22;9975;48.046;7.804;2024-01-15T02:00:59;-3.20;99.90
19654;DHT22;9975;48.046;7.804;2024-01-15T02:03:29;-3.20;99.90
19654;DHT22;9975;48.046;7.804;2024-01-15T02:05:56;-3.10;99.90
19654;DHT22;9975;48.046;7.804;2024-01-15T02:08:21;-3.00;99.90
19654;DHT22;9975;48.046;7.804;2024-01-15T02:10:48;-3.00;99.90
19654;DHT22;9975;48.046;7.804;2024-01-15T02:13:14;-3.00;99.90
19654;DHT22;9975;48.046;7.804;2024-01-15T02:15:40;-2.90;99.90
19654;DHT22;9975;48.046;7.804;2024-01-15T02:18:06;-2.90;99.90
19654;DHT22;9975;48.046;7.804;2024-01-15T02:20:35;-2.90;99.90
19654;DHT22;9975;48.046;7.804;2024-01-15T02:23:15;-2.70;99.90
19654;DHT22;9975;48.046;7.804;2024-01-15T02:25:45;-2.50;99.90
19654;DHT22;9975;48.046;7.804;2024-01-15T02:28:13;-2.60;99.90
19654;DHT22;9975;48.046;7.804;2024-01-15T02:30:40;-2.40;99.90
19654;DHT22;9975;48.046;7.804;2024-01-15T02:33:07;-2.40;99.90
19654;DHT22;9975;48.046;7.804;2024-01-15T02:35:33;-2.40;99.90
19654;DHT22;9975;48.046;7.804;2024-01-15T02:37:59;-2.40;99.90
19654;DHT22;9975;48.046;7.804;2024-01-15T02:40:25;-2.40;99.90
19654;DHT22;9975;48.046;7.804;2024-01-15T02:42:54;-0.70;99.90
19654;DHT22;9975;48.046;7.804;2024-01-15T02:45:21;-1.10;99.90
19654;DHT22;9975;48.046;7.804;2024-01-15T02:47:47;-2.30;99.90
19654;DHT22;9975;48.046;7.804;2024-01-15T02:50:13;-2.30;99.90
19654;DHT22;9975;48.046;7.804;2024-01-15T02:52:39;-2.20;99.90
19654;DHT22;9975;48.046;7.804;2024-01-15T02:55:07;-2.10;99.90
19654;DHT22;9975;48.046;7.804;2024-01-15T02:57:33;-2.20;99.90
19654;DHT22;9975;48.046;7.804;2024-01-15T03:00:01;-2.10;99.90
19654;DHT22;9975;48.046;7.804;2024-01-15T03:02:27;-2.20;99.90
19654;DHT22;9975;48.046;7.804;2024-01-15T03:04:55;-2.20;99.90
19654;DHT22;9975;48.046;7.804;2024-01-15T03:07:20;-2.20;99.90
19654;DHT22;9975;48.046;7.804;2024-01-15T03:09:47;-2.10;99.90
19654;DHT22;9975;48.046;7.804;2024-01-15T03:12:13;-2.30;99.90
19654;DHT22;9975;48.046;7.804;2024-01-15T03:14:39;-2.30;99.90
19654;DHT22;9975;48.046;7.804;2024-01-15T03:17:05;-2.20;99.90
19654;DHT22;9975;48.046;7.804;2024-01-15T03:19:34;-2.20;99.90
19654;DHT22;9975;48.046;7.804;2024-01-15T03:22:00;-2.30;99.90
19654;DHT22;9975;48.046;7.804;2024-01-15T03:24:28;-2.30;99.90
19654;DHT22;9975;48.046;7.804;2024-01-15T03:26:53;-2.30;99.90
19654;DHT22;9975;48.046;7.804;2024-01-15T03:29:19;-0.60;99.90
19654;DHT22;9975;48.046;7.804;2024-01-15T03:34:11;-2.30;99.90
19654;DHT22;9975;48.046;7.804;2024-01-15T03:36:39;-1.30;99.90
19654;DHT22;9975;48.046;7.804;2024-01-15T03:39:06;-2.40;99.90
19654;DHT22;9975;48.046;7.804;2024-01-15T03:41:31;-2.20;99.90
19654;DHT22;9975;48.046;7.804;2024-01-15T03:44:01;-2.30;99.90
19654;DHT22;9975;48.046;7.804;2024-01-15T03:46:27;-2.30;99.90
19654;DHT22;9975;48.046;7.804;2024-01-15T03:48:53;-2.40;99.90
19654;DHT22;9975;48.046;7.804;2024-01-15T03:51:19;-2.40;99.90
19654;DHT22;9975;48.046;7.804;2024-01-15T03:53:44;-2.50;99.90
19654;DHT22;9975;48.046;7.804;2024-01-15T03:56:10;-2.50;99.90
19654;DHT22;9975;48.046;7.804;2024-01-15T03:58:36;-1.60;99.90
19654;DHT22;9975;48.046;7.804;2024-01-15T04:01:01;-2.40;99.90
19654;DHT22;9975;48.046;7.804;2024-01-15T04:03:27;-2.40;99.90
19654;DHT22;9975;48.046;7.804;2024-01-15T04:05:55;-2.50;99.90
19654;DHT22;9975;48.046;7.804;2024-01-15T04:08:22;-2.50;99.90
19654;DHT22;9975;48.046;7.804;2024-01-15T04:10:49;-2.50;99.90
19654;DHT22;9975;48.046;7.804;2024-01-15T04:13:18;-2.50;99.90
19654;DHT22;9975;48.046;7.804;2024-01-15T04:15:45;-2.40;99.90
19654;DHT22;9975;48.046;7.804;2024-01-15T04:18:10;-2.30;99.90
19654;DHT22;9975;48.046;7.804;2024-01-15T04:20:36;-2.30;99.90
19654;DHT22;9975;48.046;7.804;2024-01-15T04:23:03;-2.30;99.90
19654;DHT22;9975;48.046;7.804;2024-01-15T04:25:28;-2.30;99.90
19654;DHT22;9975;48.046;7.804;2024-01-15T04:27:54;-2.20;99.90
19654;DHT22;9975;48.046;7.804;2024-01-15T04:30:19;-2.20;99.90
19654;DHT22;9975;48.046;7.804;2024-01-15T04:32:45;-2.20;99.90
19654;DHT22;9975;48.046;7.804;2024-01-15T04:35:11;-2.20;99.90
19654;DHT22;9975;48.046;7.804;2024-01-15T04:37:38;-2.20;99.90
19654;DHT22;9975;48.046;7.804;2024-01-15T04:40:05;-2.20;99.90
19654;DHT22;9975;48.046;7.804;2024-01-15T04:42:31;-2.10;99.90
19654;DHT22;9975;48.046;7.804;2024-01-15T04:44:57;-2.10;99.90
19654;DHT22;9975;48.046;7.804;2024-01-15T04:47:25;-0.30;99.90
19654;DHT22;9975;48.046;7.804;2024-01-15T04:49:51;-2.00;99.90
19654;DHT22;9975;48.046;7.804;2024-01-15T04:52:17;0.40;99.90
19654;DHT22;9975;48.046;7.804;2024-01-15T04:54:42;-2.00;99.90
19654;DHT22;9975;48.046;7.804;2024-01-15T04:57:08;-2.00;99.90
19654;DHT22;9975;48.046;7.804;2024-01-15T04:59:34;-1.00;99.90
19654;DHT22;9975;48.046;7.804;2024-01-15T05:01:59;-2.00;99.90
19654;DHT22;9975;48.046;7.804;2024-01-15T05:04:25;-2.10;99.90
19654;DHT22;9975;48.046;7.804;2024-01-15T05:06:51;-2.00;99.90
19654;DHT22;9975;48.046;7.804;2024-01-15T05:09:16;-2.00;99.90
19654;DHT22;9975;48.046;7.804;2024-01-15T05:11:43;-2.00;99.90
19654;DHT22;9975;48.046;7.804;2024-01-15T05:14:09;-2.00;99.90
19654;DHT22;9975;48.046;7.804;2024-01-15T05:16:35;-1.90;99.90
19654;DHT22;9975;48.046;7.804;2024-01-15T05:19:00;-1.90;99.90
19654;DHT22;9975;48.046;7.804;2024-01-15T05:21:26;-1.90;99.90
19654;DHT22;9975;48.046;7.804;2024-01-15T05:23:51;-1.90;99.90
19654;DHT22;9975;48.046;7.804;2024-01-15T05:26:17;-1.90;99.90
19654;DHT22;9975;48.046;7.804;2024-01-15T05:28:43;-2.00;99.90
19654;DHT22;9975;48.046;7.804;2024-01-15T05:31:09;-1.90;99.90
19654;DHT22;9975;48.046;7.804;2024-01-15T05:33:35;-1.90;99.90
19654;DHT22;9975;48.046;7.804;2024-01-15T05:36:00;-1.90;99.90
19654;DHT22;9975;48.046;7.804;2024-01-15T05:38:27;-2.00;99.90
19654;DHT22;9975;48.046;7.804;2024-01-15T05:40:53;-2.00;99.90
19654;DHT22;9975;48.046;7.804;2024-01-15T05:43:18;-2.00;99.90
19654;DHT22;9975;48.046;7.804;2024-01-15T05:45:44;-1.80;99.90
19654;DHT22;9975;48.046;7.804;2024-01-15T05:48:12;-1.80;99.90
19654;DHT22;9975;48.046;7.804;2024-01-15T05:50:38;-1.80;99.90
19654;DHT22;9975;48.046;7.804;2024-01-15T05:53:04;-1.80;99.90
19654;DHT22;9975;48.046;7.804;2024-01-15T05:55:30;-1.70;99.90
19654;DHT22;9975;48.046;7.804;2024-01-15T05:57:55;-1.70;99.90
19654;DHT22;9975;48.046;7.804;2024-01-15T06:00:21;-1.70;99.90
19654;DHT22;9975;48.046;7.804;2024-01-15T06:02:47;-1.60;99.90
19654;DHT22;9975;48.046;7.804;2024-01-15T06:05:12;-1.60;99.90
19654;DHT22;9975;48.046;7.804;2024-01-15T06:07:38;-1.60;99.90
19654;DHT22;9975;48.046;7.804;2024-01-15T06:10:04;-1.60;99.90
19654;DHT22;9975;48.046;7.804;2024-01-15T06:12:30;-1.60;99.90
19654;DHT22;9975;48.046;7.804;2024-01-15T06:14:56;-1.50;99.90
19654;DHT22;9975;48.046;7.804;2024-01-15T06:17:22;-1.50;99.90
19654;DHT22;9975;48.046;7.804;2024-01-15T06:19:47;-1.50;99.90
19654;DHT22;9975;48.046;7.804;2024-01-15T06:22:13;-1.40;99.90
19654;DHT22;9975;48.046;7.804;2024-01-15T06:24:39;-1.40;99.90
19654;DHT22;9975;48.046;7.804;2024-01-15T06:27:04;-1.20;99.90
19654;DHT22;9975;48.046;7.804;2024-01-15T06:29:30;-1.40;99.90
19654;DHT22;9975;48.046;7.804;2024-01-15T06:31:56;-1.30;99.90
19654;DHT22;9975;48.046;7.804;2024-01-15T06:34:21;-1.20;99.90
19654;DHT22;9975;48.046;7.804;2024-01-15T06:36:47;-1.20;99.90
19654;DHT22;9975;48.046;7.804;2024-01-15T06:39:12;-1.20;99.90
19654;DHT22;9975;48.046;7.804;2024-01-15T06:41:38;-1.30;99.90
19654;DHT22;9975;48.046;7.804;2024-01-15T06:44:11;-0.60;99.90
19654;DHT22;9975;48.046;7.804;2024-01-15T06:46:44;-1.10;99.90
19654;DHT22;9975;48.046;7.804;2024-01-15T06:49:10;-1.10;99.90
19654;DHT22;9975;48.046;7.804;2024-01-15T06:51:36;-1.00;99.90
19654;DHT22;9975;48.046;7.804;2024-01-15T06:54:01;-1.00;99.90
19654;DHT22;9975;48.046;7.804;2024-01-15T06:56:27;-1.10;99.90
19654;DHT22;9975;48.046;7.804;2024-01-15T06:58:53;0.80;99.90
19654;DHT22;9975;48.046;7.804;2024-01-15T07:01:18;-0.90;99.90
19654;DHT22;9975;48.046;7.804;2024-01-15T07:03:44;-0.90;99.90
19654;DHT22;9975;48.046;7.804;2024-01-15T07:06:10;-0.90;99.90
19654;DHT22;9975;48.046;7.804;2024-01-15T07:08:37;-0.90;99.90
19654;DHT22;9975;48.046;7.804;2024-01-15T07:11:06;-0.80;99.90
19654;DHT22;9975;48.046;7.804;2024-01-15T07:13:32;-0.80;99.90
19654;DHT22;9975;48.046;7.804;2024-01-15T07:15:58;-0.80;99.90
19654;DHT22;9975;48.046;7.804;2024-01-15T07:18:24;-0.80;99.90
19654;DHT22;9975;48.046;7.804;2024-01-15T07:20:50;-0.70;99.90
19654;DHT22;9975;48.046;7.804;2024-01-15T07:23:15;0.70;99.90
19654;DHT22;9975;48.046;7.804;2024-01-15T07:25:42;-0.80;99.90
19654;DHT22;9975;48.046;7.804;2024-01-15T07:28:08;-0.70;99.90
19654;DHT22;9975;48.046;7.804;2024-01-15T07:30:34;-0.60;99.90
19654;DHT22;9975;48.046;7.804;2024-01-15T07:33:00;-0.60;99.90
19654;DHT22;9975;48.046;7.804;2024-01-15T07:35:25;-0.60;99.90
19654;DHT22;9975;48.046;7.804;2024-01-15T07:37:51;-0.50;99.90
19654;DHT22;9975;48.046;7.804;2024-01-15T07:40:16;-0.50;99.90
19654;DHT22;9975;48.046;7.804;2024-01-15T07:42:42;-0.40;99.90
19654;DHT22;9975;48.046;7.804;2024-01-15T07:45:09;-0.40;99.90
19654;DHT22;9975;48.046;7.804;2024-01-15T07:47:35;-0.30;99.90
19654;DHT22;9975;48.046;7.804;2024-01-15T07:50:01;-0.30;99.90
19654;DHT22;9975;48.046;7.804;2024-01-15T07:52:26;-0.30;99.90
19654;DHT22;9975;48.046;7.804;2024-01-15T07:57:18;-0.20;99.90
19654;DHT22;9975;48.046;7.804;2024-01-15T07:59:46;-0.20;99.90
19654;DHT22;9975;48.046;7.804;2024-01-15T08:02:12;-0.20;99.90
19654;DHT22;9975;48.046;7.804;2024-01-15T08:07:08;-0.10;99.90
19654;DHT22;9975;48.046;7.804;2024-01-15T08:09:34;0.80;99.90
19654;DHT22;9975;48.046;7.804;2024-01-15T08:11:59;0.00;99.90
19654;DHT22;9975;48.046;7.804;2024-01-15T08:14:25;-0.10;99.90
19654;DHT22;9975;48.046;7.804;2024-01-15T08:16:51;0.00;99.90
19654;DHT22;9975;48.046;7.804;2024-01-15T08:19:17;0.10;99.90
19654;DHT22;9975;48.046;7.804;2024-01-15T08:21:42;1.30;99.90
19654;DHT22;9975;48.046;7.804;2024-01-15T08:24:08;1.60;99.90
19654;DHT22;9975;48.046;7.804;2024-01-15T08:26:34;2.00;99.90
19654;DHT22;9975;48.046;7.804;2024-01-15T08:29:01;0.10;99.90
19654;DHT22;9975;48.046;7.804;2024-01-15T08:31:26;0.20;99.90
19654;DHT22;9975;48.046;7.804;2024-01-15T08:33:52;0.20;99.90
19654;DHT22;9975;48.046;7.804;2024-01-15T08:36:18;0.30;99.90
19654;DHT22;9975;48.046;7.804;2024-01-15T08:38:44;0.20;99.90
19654;DHT22;9975;48.046;7.804;2024-01-15T08:41:10;1.30;99.90
19654;DHT22;9975;48.046;7.804;2024-01-15T08:43:36;0.10;99.90
19654;DHT22;9975;48.046;7.804;2024-01-15T08:46:02;0.20;99.90
19654;DHT22;9975;48.046;7.804;2024-01-15T08:48:28;0.70;99.90
19654;DHT22;9975;48.046;7.804;2024-01-15T08:50:55;1.50;99.90
19654;DHT22;9975;48.046;7.804;2024-01-15T08:53:20;0.30;99.90
19654;DHT22;9975;48.046;7.804;2024-01-15T08:55:46;0.30;99.90
19654;DHT22;9975;48.046;7.804;2024-01-15T08:58:13;1.40;99.90
19654;DHT22;9975;48.046;7.804;2024-01-15T09:00:38;0.30;99.90
19654;DHT22;9975;48.046;7.804;2024-01-15T09:03:04;0.30;99.90
19654;DHT22;9975;48.046;7.804;2024-01-15T09:05:30;0.40;99.90
19654;DHT22;9975;48.046;7.804;2024-01-15T09:07:56;0.30;99.90
19654;DHT22;9975;48.046;7.804;2024-01-15T09:10:21;0.40;99.90
19654;DHT22;9975;48.046;7.804;2024-01-15T09:12:47;0.30;99.90
19654;DHT22;9975;48.046;7.804;2024-01-15T19:13:51;-0.70;99.90
19654;DHT22;9975;48.046;7.804;2024-01-15T19:16:17;-0.70;99.90
19654;DHT22;9975;48.046;7.804;2024-01-15T19:18:48;-0.70;99.90
19654;DHT22;9975;48.046;7.804;2024-01-15T19:21:14;-0.70;99.90
19654;DHT22;9975;48.046;7.804;2024-01-15T19:23:40;-0.60;99.90
19654;DHT22;9975;48.046;7.804;2024-01-15T19:26:05;-0.70;99.90
19654;DHT22;9975;48.046;7.804;2024-01-15T19:28:32;-0.80;99.90
19654;DHT22;9975;48.046;7.804;2024-01-15T19:30:58;-0.90;99.90
19654;DHT22;9975;48.046;7.804;2024-01-15T19:33:25;-0.90;99.90
19654;DHT22;9975;48.046;7.804;2024-01-15T19:35:51;-0.90;99.90
19654;DHT22;9975;48.046;7.804;2024-01-15T19:38:18;-1.00;99.90
19654;DHT22;9975;48.046;7.804;2024-01-15T19:40:43;-1.00;99.90
19654;DHT22;9975;48.046;7.804;2024-01-15T19:43:09;-0.90;99.90
19654;DHT22;9975;48.046;7.804;2024-01-15T19:45:37;-0.90;99.90
19654;DHT22;9975;48.046;7.804;2024-01-15T19:48:02;-1.00;99.90
19654;DHT22;9975;48.046;7.804;2024-01-15T19:50:29;-1.00;99.90
19654;DHT22;9975;48.046;7.804;2024-01-15T19:52:54;-1.00;99.90
19654;DHT22;9975;48.046;7.804;2024-01-15T19:55:21;-1.10;99.90
19654;DHT22;9975;48.046;7.804;2024-01-15T19:57:47;-1.10;99.90
19654;DHT22;9975;48.046;7.804;2024-01-15T20:00:14;-1.20;99.90
19654;DHT22;9975;48.046;7.804;2024-01-15T20:02:40;-1.20;99.90
19654;DHT22;9975;48.046;7.804;2024-01-15T20:05:06;-1.10;99.90
19654;DHT22;9975;48.046;7.804;2024-01-15T20:07:35;-1.10;99.90
19654;DHT22;9975;48.046;7.804;2024-01-15T20:10:05;-1.10;99.90
19654;DHT22;9975;48.046;7.804;2024-01-15T20:12:30;-1.00;99.90
19654;DHT22;9975;48.046;7.804;2024-01-15T20:14:57;-1.10;99.90
19654;DHT22;9975;48.046;7.804;2024-01-15T20:17:23;-1.20;99.90
19654;DHT22;9975;48.046;7.804;2024-01-15T20:22:15;-1.20;99.90
19654;DHT22;9975;48.046;7.804;2024-01-15T20:24:40;-1.30;99.90
19654;DHT22;9975;48.046;7.804;2024-01-15T20:27:07;-1.40;99.90
19654;DHT22;9975;48.046;7.804;2024-01-15T20:29:33;-1.40;99.90
19654;DHT22;9975;48.046;7.804;2024-01-15T20:32:00;-1.40;99.90
19654;DHT22;9975;48.046;7.804;2024-01-15T20:34:27;-1.40;99.90
19654;DHT22;9975;48.046;7.804;2024-01-15T20:36:54;-1.40;99.90
19654;DHT22;9975;48.046;7.804;2024-01-15T20:39:22;-1.50;99.90
19654;DHT22;9975;48.046;7.804;2024-01-15T20:41:51;-1.60;99.90
19654;DHT22;9975;48.046;7.804;2024-01-15T20:44:16;-1.60;99.90
19654;DHT22;9975;48.046;7.804;2024-01-15T20:46:44;-1.60;99.90
19654;DHT22;9975;48.046;7.804;2024-01-15T20:49:12;-1.60;99.90
19654;DHT22;9975;48.046;7.804;2024-01-15T20:51:37;-1.60;99.90
19654;DHT22;9975;48.046;7.804;2024-01-15T20:54:03;-1.70;99.90
19654;DHT22;9975;48.046;7.804;2024-01-15T20:56:29;-1.80;99.90
19654;DHT22;9975;48.046;7.804;2024-01-15T20:58:55;-1.70;99.90
19654;DHT22;9975;48.046;7.804;2024-01-15T21:01:20;-1.80;99.90
19654;DHT22;9975;48.046;7.804;2024-01-15T21:03:46;-1.80;99.90
19654;DHT22;9975;48.046;7.804;2024-01-15T21:06:11;-1.90;99.90
19654;DHT22;9975;48.046;7.804;2024-01-15T21:08:37;-1.90;99.90
19654;DHT22;9975;48.046;7.804;2024-01-15T21:11:05;-2.00;99.90
19654;DHT22;9975;48.046;7.804;2024-01-15T21:13:31;-2.00;99.90
19654;DHT22;9975;48.046;7.804;2024-01-15T21:15:58;-2.10;99.90
19654;DHT22;9975;48.046;7.804;2024-01-15T21:18:24;-2.20;99.90
19654;DHT22;9975;48.046;7.804;2024-01-15T21:20:49;-2.10;99.90
19654;DHT22;9975;48.046;7.804;2024-01-15T21:23:15;-2.20;99.90
19654;DHT22;9975;48.046;7.804;2024-01-15T21:25:41;-2.20;99.90
19654;DHT22;9975;48.046;7.804;2024-01-15T21:28:07;-2.20;99.90
19654;DHT22;9975;48.046;7.804;2024-01-15T21:30:32;-2.20;99.90
19654;DHT22;9975;48.046;7.804;2024-01-15T21:33:02;-2.30;99.90
19654;DHT22;9975;48.046;7.804;2024-01-15T21:35:29;-2.20;99.90
19654;DHT22;9975;48.046;7.804;2024-01-15T21:37:54;-2.20;99.90
19654;DHT22;9975;48.046;7.804;2024-01-15T21:40:20;-2.20;99.90
19654;DHT22;9975;48.046;7.804;2024-01-15T21:42:46;-1.00;99.90
19654;DHT22;9975;48.046;7.804;2024-01-15T21:45:12;-2.20;99.90
19654;DHT22;9975;48.046;7.804;2024-01-15T21:47:38;-2.20;99.90
19654;DHT22;9975;48.046;7.804;2024-01-15T21:50:06;-2.30;99.90
19654;DHT22;9975;48.046;7.804;2024-01-15T21:52:32;-2.30;99.90
19654;DHT22;9975;48.046;7.804;2024-01-15T21:54:57;-2.30;99.90
19654;DHT22;9975;48.046;7.804;2024-01-15T21:57:23;0.10;99.90
19654;DHT22;9975;48.046;7.804;2024-01-15T21:59:49;-2.40;99.90
19654;DHT22;9975;48.046;7.804;2024-01-15T22:02:16;-2.40;99.90
19654;DHT22;9975;48.046;7.804;2024-01-15T22:04:41;-2.40;99.90
19654;DHT22;9975;48.046;7.804;2024-01-15T22:07:07;-2.40;99.90
19654;DHT22;9975;48.046;7.804;2024-01-15T22:09:33;-2.60;99.90
19654;DHT22;9975;48.046;7.804;2024-01-15T22:11:59;-2.50;99.90
19654;DHT22;9975;48.046;7.804;2024-01-15T22:14:26;-0.90;99.90
19654;DHT22;9975;48.046;7.804;2024-01-15T22:16:54;-2.60;99.90
19654;DHT22;9975;48.046;7.804;2024-01-15T22:19:19;-2.60;99.90
19654;DHT22;9975;48.046;7.804;2024-01-15T22:21:47;-1.00;99.90
19654;DHT22;9975;48.046;7.804;2024-01-15T22:24:14;-2.70;99.90
19654;DHT22;9975;48.046;7.804;2024-01-15T22:26:40;-2.70;99.90
19654;DHT22;9975;48.046;7.804;2024-01-15T22:29:06;-2.80;99.90
19654;DHT22;9975;48.046;7.804;2024-01-15T22:31:32;-2.80;99.90
19654;DHT22;9975;48.046;7.804;2024-01-15T22:34:01;-2.70;99.90
19654;DHT22;9975;48.046;7.804;2024-01-15T22:36:27;-2.80;99.90
19654;DHT22;9975;48.046;7.804;2024-01-15T22:38:52;-1.50;99.90
19654;DHT22;9975;48.046;7.804;2024-01-15T22:41:18;-2.90;99.90
19654;DHT22;9975;48.046;7.804;2024-01-15T22:43:44;-2.90;99.90
19654;DHT22;9975;48.046;7.804;2024-01-15T22:46:09;-2.90;99.90
19654;DHT22;9975;48.046;7.804;2024-01-15T22:48:36;-3.00;99.90
19654;DHT22;9975;48.046;7.804;2024-01-15T22:51:01;-3.00;99.90
19654;DHT22;9975;48.046;7.804;2024-01-15T22:53:27;-3.10;99.90
19654;DHT22;9975;48.046;7.804;2024-01-15T22:55:53;-3.10;99.90
19654;DHT22;9975;48.046;7.804;2024-01-15T22:58:20;-3.10;99.90
19654;DHT22;9975;48.046;7.804;2024-01-15T23:00:48;-3.30;99.90
19654;DHT22;9975;48.046;7.804;2024-01-15T23:03:14;-3.20;99.90
19654;DHT22;9975;48.046;7.804;2024-01-15T23:05:40;-3.20;99.90
19654;DHT22;9975;48.046;7.804;2024-01-15T23:08:06;-3.40;99.90
19654;DHT22;9975;48.046;7.804;2024-01-15T23:10:33;-3.40;99.90
19654;DHT22;9975;48.046;7.804;2024-01-15T23:12:59;-3.40;99.90
19654;DHT22;9975;48.046;7.804;2024-01-15T23:15:24;-3.50;99.90
19654;DHT22;9975;48.046;7.804;2024-01-15T23:17:52;-3.50;99.90
19654;DHT22;9975;48.046;7.804;2024-01-15T23:20:18;-3.50;99.90
19654;DHT22;9975;48.046;7.804;2024-01-15T23:22:44;-3.60;99.90
19654;DHT22;9975;48.046;7.804;2024-01-15T23:25:10;-3.60;99.90
19654;DHT22;9975;48.046;7.804;2024-01-15T23:27:37;-3.60;99.90
19654;DHT22;9975;48.046;7.804;2024-01-15T23:30:04;-3.70;99.90
